Time;durP1;ratioP1;P1;durP2;ratioP2;P2;SDS_P1;SDS_P2;PMS_P1;PMS_P2;Temp;Humidity;BMP_temperature;BMP_pressure;BME280_temperature;BME280_humidity;BME280_pressure;Samples;Min_cycle;Max_cycle;Signal;HPM_P1;HPM_P2
2023/04/14 00:01:15;;;;;;;8.20;5.15;;;1.80;99.90;;;;;;5033102;28;20025;-73
2023/04/14 00:03:42;;;;;;;8.40;5.63;;;1.80;99.90;;;;;;5033200;28;20043;-73
2023/04/14 00:06:07;;;;;;;8.93;5.25;;;1.80;99.90;;;;;;5033067;28;20025;-72
2023/04/14 00:08:33;;;;;;;8.10;5.22;;;1.80;99.90;;;;;;5033352;28;20036;-73
2023/04/14 00:10:58;;;;;;;11.15;5.85;;;1.80;99.90;;;;;;5033644;28;20467;-73
2023/04/14 00:13:24;;;;;;;9.30;6.20;;;1.90;99.90;;;;;;5033582;28;20042;-73
2023/04/14 00:15:50;;;;;;;11.13;7.70;;;1.80;99.90;;;;;;5035415;28;20029;-72
2023/04/14 00:18:16;;;;;;;12.38;7.75;;;1.90;99.90;;;;;;5052020;28;20060;-72
2023/04/14 00:20:41;;;;;;;12.13;7.65;;;1.80;99.90;;;;;;5053188;28;20064;-72
2023/04/14 00:23:07;;;;;;;14.65;8.23;;;1.80;99.90;;;;;;5052906;28;20036;-72
2023/04/14 00:25:32;;;;;;;12.90;7.72;;;1.80;99.90;;;;;;5052962;28;20032;-73
2023/04/14 00:27:58;;;;;;;13.27;7.85;;;1.80;99.90;;;;;;5053251;28;20397;-72
2023/04/14 00:30:24;;;;;;;12.80;8.25;;;1.80;99.90;;;;;;5052734;28;20052;-72
2023/04/14 00:32:50;;;;;;;14.35;8.90;;;1.80;99.90;;;;;;5052488;28;20025;-72
2023/04/14 00:35:15;;;;;;;16.10;8.90;;;1.80;99.90;;;;;;5051511;28;20034;-72
2023/04/14 00:37:41;;;;;;;13.23;8.65;;;1.90;99.90;;;;;;5052569;28;20065;-72
2023/04/14 00:40:10;;;;;;;14.07;9.02;;;1.80;99.90;;;;;;5055265;28;20091;-72
2023/04/14 00:42:43;;;;;;;12.35;8.25;;;1.90;99.90;;;;;;5055167;28;20037;-72
2023/04/14 00:45:09;;;;;;;13.45;8.45;;;1.80;99.90;;;;;;5056451;28;20055;-72
2023/04/14 00:47:37;;;;;;;14.02;9.00;;;1.80;99.90;;;;;;5056009;28;20029;-72
2023/04/14 00:50:03;;;;;;;13.27;8.43;;;1.80;99.90;;;;;;5055002;28;20038;-72
2023/04/14 00:52:30;;;;;;;13.60;8.85;;;1.80;99.90;;;;;;5054964;28;20037;-72
2023/04/14 00:54:57;;;;;;;12.88;8.30;;;1.70;99.90;;;;;;5056230;28;20449;-72
2023/04/14 00:57:23;;;;;;;13.50;8.30;;;1.70;99.90;;;;;;5056750;28;20487;-72
2023/04/14 00:59:49;;;;;;;12.77;8.40;;;1.70;99.90;;;;;;5054929;28;20124;-72
2023/04/14 01:02:14;;;;;;;12.35;8.20;;;1.70;99.90;;;;;;5055882;28;20159;-72
2023/04/14 01:04:41;;;;;;;13.20;8.30;;;1.70;99.90;;;;;;5056037;28;20495;-72
2023/04/14 01:07:06;;;;;;;13.73;9.27;;;1.70;99.90;;;;;;5055925;28;20064;-72
2023/04/14 01:09:32;;;;;;;14.90;8.88;;;1.70;99.90;;;;;;5056221;28;20475;-72
2023/04/14 01:12:20;;;;;;;12.02;8.02;;;1.70;99.90;;;;;;5056199;28;20025;-72
2023/04/14 01:15:07;;;;;;;12.02;7.57;;;1.70;99.90;;;;;;5055846;28;20399;-72
2023/04/14 01:17:58;;;;;;;12.38;7.53;;;1.70;99.90;;;;;;5055560;28;20037;-72
2023/04/14 01:20:41;;;;;;;12.45;7.60;;;1.60;99.90;;;;;;5056141;28;20036;-71
2023/04/14 01:23:12;;;;;;;14.25;8.25;;;1.50;99.90;;;;;;5055917;28;20028;-72
2023/04/14 01:25:53;;;;;;;12.55;6.97;;;1.50;99.90;;;;;;5054588;28;20112;-72
2023/04/14 01:28:44;;;;;;;12.00;7.20;;;1.50;99.90;;;;;;5055656;28;20072;-72
2023/04/14 01:31:40;;;;;;;11.07;6.47;;;1.50;99.90;;;;;;5055366;28;20033;-72
2023/04/14 01:34:30;;;;;;;11.98;7.30;;;1.50;99.90;;;;;;5055599;28;20060;-72
2023/04/14 01:37:16;;;;;;;10.88;6.50;;;1.50;99.90;;;;;;5054263;28;20041;-72
2023/04/14 01:39:47;;;;;;;11.52;6.70;;;1.50;99.90;;;;;;5055045;28;20032;-72
2023/04/14 01:42:16;;;;;;;10.35;6.68;;;1.50;99.90;;;;;;5053715;28;20039;-72
2023/04/14 01:44:44;;;;;;;10.82;6.85;;;1.50;99.90;;;;;;5055214;28;20029;-71
2023/04/14 01:47:13;;;;;;;12.93;7.20;;;1.60;99.90;;;;;;5054873;28;20033;-72
2023/04/14 01:49:40;;;;;;;11.57;7.05;;;1.60;99.90;;;;;;5054752;28;20087;-72
2023/04/14 01:52:08;;;;;;;11.27;6.78;;;1.50;99.90;;;;;;5051380;28;20124;-72
2023/04/14 01:54:38;;;;;;;10.32;6.40;;;1.50;99.90;;;;;;5035135;28;20475;-71
2023/04/14 01:57:05;;;;;;;10.80;6.60;;;1.50;99.90;;;;;;5035167;28;20041;-72
2023/04/14 01:59:35;;;;;;;12.18;6.72;;;1.50;99.90;;;;;;5035190;28;20103;-72
2023/04/14 02:02:03;;;;;;;11.70;6.90;;;1.50;99.90;;;;;;5037370;28;20068;-71
2023/04/14 02:04:31;;;;;;;9.55;6.32;;;1.50;99.90;;;;;;5035032;28;20040;-71
2023/04/14 02:06:59;;;;;;;12.48;7.13;;;1.50;99.90;;;;;;5034910;28;20040;-72
2023/04/14 02:09:26;;;;;;;11.85;7.38;;;1.50;99.90;;;;;;5034966;28;20029;-72
2023/04/14 02:11:53;;;;;;;11.15;6.63;;;1.50;99.90;;;;;;5033724;28;20068;-71
2023/04/14 02:14:21;;;;;;;10.77;6.65;;;1.50;99.90;;;;;;5034804;28;20056;-71
2023/04/14 02:16:49;;;;;;;11.57;6.35;;;1.60;99.90;;;;;;5044919;28;20136;-72
2023/04/14 02:19:18;;;;;;;12.80;7.55;;;1.60;99.90;;;;;;5054731;28;20112;-71
2023/04/14 02:21:46;;;;;;;10.15;6.45;;;1.60;99.90;;;;;;5054990;28;20025;-72
2023/04/14 02:24:12;;;;;;;10.80;7.03;;;1.60;99.90;;;;;;5054501;28;20033;-71
2023/04/14 02:26:44;;;;;;;12.75;8.35;;;1.60;99.90;;;;;;5054722;28;20052;-71
2023/04/14 02:29:12;;;;;;;11.38;6.57;;;1.60;99.90;;;;;;5054763;28;20028;-71
2023/04/14 02:31:50;;;;;;;9.55;6.47;;;1.50;99.90;;;;;;5054430;28;20091;-71
2023/04/14 02:34:22;;;;;;;10.85;6.30;;;1.40;99.90;;;;;;5054635;28;20033;-72
2023/04/14 02:36:52;;;;;;;9.50;5.68;;;1.40;99.90;;;;;;5054635;28;20108;-71
2023/04/14 02:39:29;;;;;;;9.75;5.57;;;1.40;99.90;;;;;;5053399;28;20087;-72
2023/04/14 02:42:04;;;;;;;10.15;5.95;;;1.40;99.90;;;;;;5054816;28;20474;-72
2023/04/14 02:44:35;;;;;;;10.07;6.38;;;1.40;99.90;;;;;;5054442;28;20052;-71
2023/04/14 02:47:06;;;;;;;11.95;7.28;;;1.40;99.90;;;;;;5053960;28;20035;-72
2023/04/14 02:49:46;;;;;;;12.27;7.25;;;1.40;99.90;;;;;;5054261;28;20037;-72
2023/04/14 02:52:16;;;;;;;11.45;7.10;;;1.40;99.90;;;;;;5053997;28;20087;-72
2023/04/14 02:54:43;;;;;;;13.05;7.05;;;1.30;99.90;;;;;;5053853;28;20037;-71
2023/04/14 02:57:09;;;;;;;12.20;7.10;;;1.30;99.90;;;;;;5054296;28;20380;-72
2023/04/14 02:59:36;;;;;;;9.65;5.82;;;1.40;99.90;;;;;;5054124;28;20422;-72
2023/04/14 03:02:04;;;;;;;10.27;5.90;;;1.40;99.90;;;;;;5053158;28;20494;-72
2023/04/14 03:04:33;;;;;;;12.45;6.57;;;1.40;99.90;;;;;;5053744;28;20435;-71
2023/04/14 03:07:00;;;;;;;11.48;6.35;;;1.40;99.90;;;;;;5053717;28;20033;-71
2023/04/14 03:09:26;;;;;;;11.85;6.43;;;1.40;99.90;;;;;;5053708;28;20424;-71
2023/04/14 03:11:56;;;;;;;9.80;5.97;;;1.40;99.90;;;;;;5053690;28;20112;-71
2023/04/14 03:14:22;;;;;;;9.05;5.65;;;1.40;99.90;;;;;;5053533;28;20479;-71
2023/04/14 03:16:53;;;;;;;9.00;5.35;;;1.40;99.90;;;;;;5053307;28;20128;-72
2023/04/14 03:19:22;;;;;;;9.60;5.90;;;1.40;99.90;;;;;;5052280;28;20128;-72
2023/04/14 03:21:49;;;;;;;9.65;5.35;;;1.40;99.90;;;;;;5053847;28;20065;-72
2023/04/14 03:24:23;;;;;;;9.55;5.47;;;1.40;99.90;;;;;;5053449;28;20029;-72
2023/04/14 03:26:56;;;;;;;10.05;5.40;;;1.40;99.90;;;;;;5052128;28;20045;-72
2023/04/14 03:29:29;;;;;;;8.35;5.05;;;1.40;99.90;;;;;;5053389;28;20033;-72
2023/04/14 03:31:57;;;;;;;8.20;4.97;;;1.40;99.90;;;;;;5053383;28;20071;-72
2023/04/14 03:34:27;;;;;;;8.48;5.22;;;1.50;99.90;;;;;;5053171;28;20031;-72
2023/04/14 03:36:54;;;;;;;7.72;4.47;;;1.40;99.90;;;;;;5053569;28;20033;-72
2023/04/14 03:39:23;;;;;;;7.30;4.45;;;1.50;99.90;;;;;;5053185;28;20053;-72
2023/04/14 03:41:50;;;;;;;8.10;4.63;;;1.50;99.90;;;;;;5048955;28;20024;-72
2023/04/14 03:44:18;;;;;;;10.70;5.57;;;1.50;99.90;;;;;;5052868;28;20045;-72
2023/04/14 03:46:43;;;;;;;10.38;5.50;;;1.50;99.90;;;;;;5051150;28;20113;-72
2023/04/14 03:49:15;;;;;;;9.32;5.60;;;1.50;99.90;;;;;;5050056;28;20056;-72
2023/04/14 03:51:44;;;;;;;11.15;5.68;;;1.50;99.90;;;;;;5052832;28;20025;-72
2023/04/14 03:54:12;;;;;;;9.80;5.80;;;1.40;99.90;;;;;;5051774;28;20108;-72
2023/04/14 03:56:40;;;;;;;12.25;6.88;;;1.40;99.90;;;;;;5052037;28;20037;-72
2023/04/14 03:59:11;;;;;;;11.82;7.35;;;1.40;99.90;;;;;;5052912;28;20045;-72
2023/04/14 04:01:38;;;;;;;;;;;1.40;99.90;;;;;;5052899;28;20032;-72
2023/04/14 04:04:06;;;;;;;11.90;7.28;;;1.40;99.90;;;;;;5051687;28;19987;-72
2023/04/14 04:06:32;;;;;;;11.27;7.47;;;1.40;99.90;;;;;;5052489;28;20094;-72
2023/04/14 04:09:00;;;;;;;10.65;6.50;;;1.30;99.90;;;;;;5052651;28;20113;-72
2023/04/14 04:11:27;;;;;;;8.75;5.60;;;1.30;99.90;;;;;;5052165;28;20033;-72
2023/04/14 04:13:55;;;;;;;11.02;7.18;;;1.40;99.90;;;;;;5056297;28;20086;-72
2023/04/14 04:16:23;;;;;;;9.65;7.05;;;1.40;99.90;;;;;;5056335;28;20068;-72
2023/04/14 04:18:49;;;;;;;9.82;6.78;;;1.40;99.90;;;;;;5056981;28;20033;-72
2023/04/14 04:21:17;;;;;;;9.57;6.25;;;1.30;99.90;;;;;;5055714;28;20048;-72
2023/04/14 04:23:50;;;;;;;6.78;4.53;;;1.30;99.90;;;;;;5056809;28;20471;-73
2023/04/14 04:26:17;;;;;;;6.95;4.80;;;1.40;99.90;;;;;;5055504;28;20509;-72
2023/04/14 04:28:43;;;;;;;6.28;3.92;;;1.40;99.90;;;;;;5057322;28;20390;-73
2023/04/14 04:31:09;;;;;;;7.72;4.82;;;1.40;99.90;;;;;;5056746;28;20044;-73
2023/04/14 04:33:36;;;;;;;6.55;4.05;;;1.40;99.90;;;;;;5056835;28;20026;-73
2023/04/14 04:36:05;;;;;;;11.73;5.55;;;1.40;99.90;;;;;;5056851;28;20463;-72
2023/04/14 04:38:31;;;;;;;8.50;5.18;;;1.30;99.90;;;;;;5056924;28;20103;-73
2023/04/14 04:40:56;;;;;;;11.13;5.50;;;1.30;99.90;;;;;;5056511;28;20439;-72
2023/04/14 04:43:22;;;;;;;10.65;5.78;;;1.40;99.90;;;;;;5056783;28;20114;-71
2023/04/14 04:46:21;;;;;;;9.80;5.35;;;1.40;99.90;;;;;;5056328;28;20025;-72
2023/04/14 04:48:52;;;;;;;13.52;5.45;;;1.40;99.90;;;;;;5054788;28;20070;-72
2023/04/14 04:51:18;;;;;;;;;;;1.40;99.90;;;;;;5056618;28;20108;-72
2023/04/14 04:53:44;;;;;;;7.65;4.60;;;1.40;99.90;;;;;;5056136;28;20017;-72
2023/04/14 04:56:10;;;;;;;9.18;4.97;;;1.40;99.90;;;;;;5055927;28;20108;-72
2023/04/14 04:58:35;;;;;;;8.77;4.82;;;1.40;99.90;;;;;;5054148;28;20133;-72
2023/04/14 05:01:09;;;;;;;7.45;4.85;;;1.40;99.90;;;;;;5055810;28;20367;-73
2023/04/14 05:03:35;;;;;;;6.40;3.90;;;1.40;99.90;;;;;;5056068;28;20438;-72
2023/04/14 05:06:01;;;;;;;5.63;3.45;;;1.40;99.90;;;;;;5054770;28;20041;-73
2023/04/14 05:08:27;;;;;;;6.28;3.90;;;1.40;99.90;;;;;;5056332;28;20112;-73
2023/04/14 05:10:52;;;;;;;5.35;3.10;;;1.40;99.90;;;;;;5055989;28;20068;-73
2023/04/14 05:13:18;;;;;;;5.70;3.30;;;1.40;99.90;;;;;;5055887;28;20479;-73
2023/04/14 05:15:44;;;;;;;5.93;3.42;;;1.40;99.90;;;;;;5055928;28;20490;-73
2023/04/14 05:18:10;;;;;;;4.63;3.00;;;1.40;99.90;;;;;;5055827;28;20033;-73
2023/04/14 05:20:36;;;;;;;6.85;4.07;;;1.40;99.90;;;;;;5055747;28;20077;-73
2023/04/14 05:23:02;;;;;;;5.95;4.05;;;1.50;99.90;;;;;;5054889;28;20056;-74
2023/04/14 05:25:27;;;;;;;5.68;3.55;;;1.40;99.90;;;;;;5055691;28;20036;-73
2023/04/14 05:27:53;;;;;;;5.53;3.33;;;1.40;99.90;;;;;;5055622;28;20033;-73
2023/04/14 05:30:19;;;;;;;6.47;4.00;;;1.40;99.90;;;;;;5055617;28;20163;-73
2023/04/14 05:32:44;;;;;;;7.07;3.97;;;1.50;99.90;;;;;;5055800;28;20037;-73
2023/04/14 05:35:10;;;;;;;6.07;4.03;;;1.40;99.90;;;;;;5054252;28;20087;-73
2023/04/14 05:37:36;;;;;;;10.80;5.45;;;1.40;99.90;;;;;;5055560;28;20044;-73
2023/04/14 05:40:02;;;;;;;20.02;9.77;;;1.50;99.90;;;;;;5054212;28;20437;-73
2023/04/14 05:42:28;;;;;;;18.13;8.43;;;1.50;99.90;;;;;;5044003;28;20061;-72
2023/04/14 05:44:54;;;;;;;24.67;9.68;;;1.40;99.90;;;;;;5035444;28;20064;-73
2023/04/14 05:47:20;;;;;;;18.08;9.13;;;1.50;99.90;;;;;;5042138;28;20063;-73
2023/04/14 05:49:45;;;;;;;17.10;8.23;;;1.50;99.90;;;;;;5055307;28;20120;-73
2023/04/14 05:52:11;;;;;;;15.57;7.88;;;1.50;99.90;;;;;;5055214;28;20033;-73
2023/04/14 05:54:37;;;;;;;11.35;6.03;;;1.50;99.90;;;;;;5053852;28;20509;-73
2023/04/14 05:57:03;;;;;;;10.13;5.88;;;1.60;99.90;;;;;;5054173;28;20076;-73
2023/04/14 05:59:28;;;;;;;12.95;7.35;;;1.60;99.90;;;;;;5055100;28;20037;-73
2023/04/14 06:01:54;;;;;;;13.50;6.47;;;1.60;99.90;;;;;;5054630;28;20037;-73
2023/04/14 06:04:20;;;;;;;9.30;6.07;;;1.50;99.90;;;;;;5054936;28;20112;-73
2023/04/14 06:06:45;;;;;;;10.57;6.22;;;1.50;99.90;;;;;;5054923;28;20490;-73
2023/04/14 06:09:11;;;;;;;9.05;5.60;;;1.50;99.90;;;;;;5055195;28;20061;-73
2023/04/14 06:11:38;;;;;;;9.48;5.13;;;1.50;99.90;;;;;;5054909;28;20037;-73
2023/04/14 06:14:06;;;;;;;8.20;4.55;;;1.50;99.90;;;;;;5055025;28;20424;-73
2023/04/14 06:16:32;;;;;;;7.80;4.75;;;1.50;99.90;;;;;;5054768;28;20036;-73
2023/04/14 06:18:58;;;;;;;11.98;5.93;;;1.50;99.90;;;;;;5055315;28;20028;-73
2023/04/14 06:21:23;;;;;;;9.88;5.80;;;1.60;99.90;;;;;;5054685;28;20397;-73
2023/04/14 06:23:49;;;;;;;11.20;6.68;;;1.60;99.90;;;;;;5053312;28;20040;-73
2023/04/14 06:26:15;;;;;;;10.30;6.50;;;1.60;99.90;;;;;;5053240;28;20426;-73
2023/04/14 06:28:40;;;;;;;12.30;7.22;;;1.60;99.90;;;;;;5054964;28;20041;-73
2023/04/14 06:31:06;;;;;;;18.77;11.85;;;1.60;99.90;;;;;;5054445;28;20474;-73
2023/04/14 06:33:32;;;;;;;14.82;9.13;;;1.60;99.90;;;;;;5054642;28;20417;-74
2023/04/14 06:35:57;;;;;;;14.02;9.35;;;1.60;99.90;;;;;;5054270;28;20033;-73
2023/04/14 06:38:26;;;;;;;15.93;10.05;;;1.60;99.90;;;;;;5054365;28;20399;-74
2023/04/14 06:40:52;;;;;;;9.70;6.75;;;1.60;99.90;;;;;;5054215;28;20037;-73
2023/04/14 06:43:18;;;;;;;13.02;7.13;;;1.60;99.90;;;;;;5053546;28;20033;-73
2023/04/14 06:45:44;;;;;;;11.65;5.80;;;1.60;99.90;;;;;;5054377;28;20060;-73
2023/04/14 06:48:12;;;;;;;10.18;5.38;;;1.60;99.90;;;;;;5054115;28;20064;-74
2023/04/14 06:50:37;;;;;;;8.10;4.88;;;1.70;99.90;;;;;;5054188;28;20479;-74
2023/04/14 06:53:05;;;;;;;10.27;4.82;;;1.70;99.90;;;;;;5053876;28;20033;-73
2023/04/14 06:55:30;;;;;;;7.43;4.32;;;1.70;99.90;;;;;;5054150;28;20052;-73
2023/04/14 06:57:56;;;;;;;7.00;4.50;;;1.70;99.90;;;;;;5053150;28;20051;-74
2023/04/14 07:00:22;;;;;;;8.73;4.90;;;1.70;99.90;;;;;;5054453;28;20065;-73
2023/04/14 07:02:47;;;;;;;17.73;10.38;;;1.70;99.90;;;;;;5053782;28;20079;-73
2023/04/14 07:05:13;;;;;;;15.75;8.13;;;1.70;99.90;;;;;;5053902;28;20507;-74
2023/04/14 07:07:39;;;;;;;12.63;6.95;;;1.70;99.90;;;;;;5052757;28;20044;-73
2023/04/14 07:10:05;;;;;;;11.98;6.72;;;1.70;99.90;;;;;;5053965;28;20419;-74
2023/04/14 07:12:32;;;;;;;12.50;6.15;;;1.70;99.90;;;;;;5053666;28;20061;-74
2023/04/14 07:14:58;;;;;;;10.10;5.90;;;1.80;99.90;;;;;;5051535;28;20037;-74
2023/04/14 07:17:24;;;;;;;6.50;4.10;;;1.90;99.90;;;;;;5035160;28;20040;-73
2023/04/14 07:19:49;;;;;;;5.13;3.45;;;1.90;99.90;;;;;;5033669;28;20115;-74
2023/04/14 07:22:15;;;;;;;6.05;3.72;;;1.90;99.90;;;;;;5033690;28;20040;-74
2023/04/14 07:24:41;;;;;;;8.55;5.13;;;1.90;99.90;;;;;;5033585;28;20041;-74
2023/04/14 07:27:13;;;;;;;7.03;4.72;;;1.90;99.90;;;;;;5033511;28;20033;-74
2023/04/14 07:29:40;;;;;;;6.75;4.05;;;1.90;99.90;;;;;;5032824;28;20387;-74
2023/04/14 07:32:06;;;;;;;5.00;3.35;;;1.90;99.90;;;;;;5033821;28;20391;-75
2023/04/14 07:34:32;;;;;;;5.78;3.92;;;1.90;99.90;;;;;;5032328;28;20030;-74
2023/04/14 07:36:57;;;;;;;6.47;3.92;;;1.90;99.90;;;;;;5033732;28;20426;-75
2023/04/14 07:39:23;;;;;;;11.90;7.63;;;2.00;99.90;;;;;;5033634;28;20108;-75
2023/04/14 07:41:49;;;;;;;10.50;5.97;;;2.00;99.90;;;;;;5033430;28;20029;-75
2023/04/14 07:44:15;;;;;;;9.50;5.90;;;2.10;99.90;;;;;;5015699;28;20523;-75
2023/04/14 07:46:40;;;;;;;10.27;5.82;;;2.10;99.90;;;;;;5033081;28;20391;-75
2023/04/14 07:49:06;;;;;;;8.70;5.90;;;2.10;99.90;;;;;;5033668;28;20163;-75
2023/04/14 07:51:32;;;;;;;11.07;6.90;;;2.10;99.90;;;;;;5033643;28;20069;-75
2023/04/14 07:53:59;;;;;;;8.70;5.10;;;2.10;99.90;;;;;;5033133;28;20041;-75
2023/04/14 07:56:25;;;;;;;8.20;5.05;;;2.00;99.90;;;;;;5033527;28;20029;-75
2023/04/14 07:58:50;;;;;;;6.95;4.20;;;2.00;99.90;;;;;;5033163;28;20120;-75
2023/04/14 08:01:16;;;;;;;5.65;3.67;;;2.10;99.90;;;;;;5033242;28;20136;-77
2023/04/14 08:03:42;;;;;;;6.30;3.88;;;2.10;99.90;;;;;;5033583;28;20578;-77
2023/04/14 08:06:08;;;;;;;7.90;4.15;;;2.10;99.90;;;;;;5015650;28;20441;-76
2023/04/14 08:08:34;;;;;;;6.47;4.20;;;2.20;99.90;;;;;;5033537;28;20036;-76
2023/04/14 08:11:00;;;;;;;6.82;3.80;;;2.20;99.90;;;;;;5033375;28;20109;-76
2023/04/14 08:13:26;;;;;;;6.72;3.50;;;2.10;99.90;;;;;;5033354;28;20457;-76
2023/04/14 08:15:52;;;;;;;6.53;3.83;;;2.20;99.90;;;;;;5033305;28;20038;-76
2023/04/14 08:18:18;;;;;;;5.00;3.20;;;2.20;99.90;;;;;;5031870;28;20042;-76
2023/04/14 08:20:43;;;;;;;4.63;3.05;;;2.20;99.90;;;;;;5033410;28;20055;-75
2023/04/14 08:23:10;;;;;;;5.70;3.17;;;2.20;99.90;;;;;;5032956;28;20033;-76
2023/04/14 08:25:36;;;;;;;6.03;3.35;;;2.30;99.90;;;;;;5033046;28;20034;-76
2023/04/14 08:28:02;;;;;;;4.72;2.78;;;2.30;99.90;;;;;;5033077;28;20044;-75
2023/04/14 08:30:28;;;;;;;5.30;3.30;;;2.30;99.90;;;;;;5031950;28;20071;-76
2023/04/14 08:32:53;;;;;;;11.15;7.40;;;2.30;99.90;;;;;;5032709;28;20387;-76
2023/04/14 08:35:22;;;;;;;9.98;6.43;;;2.30;99.90;;;;;;5032670;28;20151;-76
2023/04/14 08:37:48;;;;;;;9.82;6.50;;;2.30;99.90;;;;;;5033075;28;20040;-76
2023/04/14 08:40:16;;;;;;;10.85;6.53;;;2.20;99.90;;;;;;5031722;28;20116;-76
2023/04/14 08:42:42;;;;;;;9.15;6.20;;;2.30;99.90;;;;;;5032879;28;20399;-76
2023/04/14 08:45:08;;;;;;;7.72;4.93;;;2.30;99.90;;;;;;5031884;28;20048;-77
2023/04/14 08:47:37;;;;;;;7.15;4.72;;;2.30;99.90;;;;;;5032719;28;20042;-76
2023/04/14 08:50:06;;;;;;;7.18;4.78;;;2.30;99.90;;;;;;5032613;28;20034;-76
2023/04/14 08:52:34;;;;;;;6.70;4.60;;;2.40;99.90;;;;;;5032571;28;20046;-76
2023/04/14 08:55:01;;;;;;;8.05;4.97;;;2.40;99.90;;;;;;5032483;28;20407;-77
2023/04/14 08:57:29;;;;;;;6.65;4.50;;;2.50;99.90;;;;;;5032755;28;20037;-77
2023/04/14 08:59:58;;;;;;;7.05;4.15;;;2.60;99.90;;;;;;5039423;28;20040;-77
2023/04/14 09:02:24;;;;;;;6.53;4.15;;;2.80;99.90;;;;;;5053118;28;20071;-76
2023/04/14 09:04:50;;;;;;;3.72;2.63;;;2.90;99.90;;;;;;5054868;28;20057;-78
2023/04/14 09:07:18;;;;;;;2.92;2.10;;;2.90;99.90;;;;;;5053247;28;20040;-77
2023/04/14 09:09:45;;;;;;;2.45;1.55;;;2.90;99.90;;;;;;5040729;28;20038;-77
2023/04/14 09:12:16;;;;;;;2.70;1.52;;;2.90;99.90;;;;;;5036271;28;20525;-77
2023/04/14 09:14:43;;;;;;;2.97;1.50;;;2.90;99.90;;;;;;5035966;28;20390;-77
2023/04/14 09:17:09;;;;;;;3.28;1.67;;;2.90;99.90;;;;;;5036301;28;20053;-77
2023/04/14 09:19:35;;;;;;;2.70;1.50;;;3.00;99.90;;;;;;5036026;28;20037;-77
2023/04/14 09:22:01;;;;;;;1.98;1.30;;;3.00;99.90;;;;;;5034621;28;20129;-77
2023/04/14 09:24:28;;;;;;;2.28;1.42;;;3.00;99.90;;;;;;5038234;28;20076;-76
2023/04/14 09:26:54;;;;;;;3.22;1.80;;;3.10;99.90;;;;;;5034617;28;20120;-77
2023/04/14 09:29:20;;;;;;;3.67;2.08;;;3.10;99.90;;;;;;5035764;28;20491;-77
2023/04/14 09:31:46;;;;;;;5.57;1.58;;;3.10;99.90;;;;;;5049535;28;20056;-77
2023/04/14 09:34:19;;;;;;;2.50;1.45;;;3.10;99.90;;;;;;5055529;28;20037;-77
2023/04/14 09:37:09;;;;;;;5.38;1.50;;;3.10;99.90;;;;;;5055598;28;20036;-76
2023/04/14 09:39:45;;;;;;;2.28;1.48;;;3.10;99.90;;;;;;5050631;28;20498;-77
2023/04/14 09:42:11;;;;;;;1.85;1.08;;;3.10;99.90;;;;;;5054653;28;20041;-75
2023/04/14 09:44:55;;;;;;;1.95;1.23;;;3.00;99.90;;;;;;5054036;28;20041;-77
2023/04/14 09:47:21;;;;;;;2.50;1.20;;;2.90;99.90;;;;;;5055575;28;20041;-76
2023/04/14 09:50:02;;;;;;;2.22;1.10;;;2.90;99.90;;;;;;5055650;28;20100;-76
2023/04/14 09:52:39;;;;;;;1.30;0.85;;;2.90;99.90;;;;;;5055123;28;20032;-76
2023/04/14 09:55:09;;;;;;;1.17;0.70;;;2.90;99.90;;;;;;5054096;28;20037;-76
2023/04/14 09:57:38;;;;;;;0.77;0.60;;;2.90;99.90;;;;;;5055273;28;20083;-76
2023/04/14 10:00:19;;;;;;;2.15;0.50;;;2.90;99.90;;;;;;5055021;28;20037;-76
2023/04/14 10:03:00;;;;;;;1.00;0.70;;;2.90;99.90;;;;;;5055024;28;20056;-76
2023/04/14 10:05:27;;;;;;;23.75;7.30;;;3.00;99.90;;;;;;5054986;28;20037;-76
2023/04/14 10:07:52;;;;;;;11.25;4.13;;;3.00;99.90;;;;;;5054845;28;20033;-76
2023/04/14 10:10:18;;;;;;;5.72;2.45;;;3.00;99.90;;;;;;5053616;28;20039;-76
2023/04/14 10:12:45;;;;;;;3.60;1.40;;;3.10;99.90;;;;;;5054838;28;20033;-76
2023/04/14 10:15:11;;;;;;;5.18;2.42;;;3.10;99.90;;;;;;5037046;28;20037;-76
2023/04/14 10:17:41;;;;;;;3.00;1.75;;;3.10;99.90;;;;;;5052549;28;20037;-76
2023/04/14 10:20:08;;;;;;;7.28;4.65;;;3.20;99.90;;;;;;5054682;28;20029;-75
2023/04/14 10:22:34;;;;;;;2.33;1.67;;;3.20;99.90;;;;;;5054896;28;20471;-75
2023/04/14 10:25:00;;;;;;;7.03;2.13;;;3.20;99.90;;;;;;5036771;28;20056;-76
2023/04/14 10:27:28;;;;;;;2.15;1.55;;;3.20;99.90;;;;;;5055117;28;20132;-75
2023/04/14 10:29:54;;;;;;;3.83;0.90;;;3.20;99.90;;;;;;5054299;28;20039;-75
2023/04/14 10:32:21;;;;;;;7.95;1.73;;;3.10;99.90;;;;;;5054823;28;20033;-75
2023/04/14 10:34:57;;;;;;;3.42;1.45;;;3.20;99.90;;;;;;5054586;28;20037;-75
2023/04/14 10:37:23;;;;;;;12.52;3.28;;;3.10;99.90;;;;;;5055020;28;20036;-75
2023/04/14 10:39:57;;;;;;;22.08;5.88;;;3.10;99.90;;;;;;5054558;28;20033;-75
2023/04/14 10:42:23;;;;;;;3.15;1.10;;;3.10;99.90;;;;;;5054307;28;20036;-75
2023/04/14 10:45:06;;;;;;;1.13;0.75;;;3.20;99.90;;;;;;5054241;28;20041;-76
2023/04/14 10:47:34;;;;;;;2.45;1.50;;;3.20;99.90;;;;;;5054240;28;20060;-75
2023/04/14 10:50:13;;;;;;;3.08;1.40;;;3.20;99.90;;;;;;5054758;28;20021;-76
2023/04/14 10:52:49;;;;;;;5.40;2.15;;;3.30;99.90;;;;;;5054510;28;20045;-75
2023/04/14 10:55:15;;;;;;;3.25;1.60;;;3.30;99.90;;;;;;5054730;28;20060;-76
2023/04/14 10:57:43;;;;;;;2.38;1.25;;;3.30;99.90;;;;;;5054100;28;20060;-76
2023/04/14 11:00:31;;;;;;;2.72;1.20;;;3.30;99.90;;;;;;5054458;28;20044;-76
2023/04/14 11:03:06;;;;;;;4.65;2.65;;;3.40;99.90;;;;;;5055635;28;20120;-76
2023/04/14 11:05:34;;;;;;;4.07;2.03;;;3.40;99.90;;;;;;5054964;28;20036;-76
2023/04/14 11:08:11;;;;;;;3.13;1.00;;;3.40;99.90;;;;;;5039193;28;20110;-75
2023/04/14 11:10:37;;;;;;;1.80;1.02;;;3.40;99.90;;;;;;5046256;28;20094;-76
2023/04/14 11:13:06;;;;;;;2.25;1.30;;;3.50;99.90;;;;;;5043354;28;20551;-75
2023/04/14 11:15:50;;;;;;;2.05;1.38;;;3.50;99.90;;;;;;5039461;28;20029;-75
2023/04/14 11:18:33;;;;;;;2.28;0.95;;;3.60;99.90;;;;;;5044823;28;20506;-75
2023/04/14 11:21:05;;;;;;;1.38;0.82;;;3.50;99.90;;;;;;5053320;28;20033;-75
2023/04/14 11:23:32;;;;;;;22.88;10.75;;;3.50;99.90;;;;;;5053497;28;20037;-75
2023/04/14 11:25:58;;;;;;;23.63;12.98;;;3.50;99.90;;;;;;5053588;28;20036;-75
2023/04/14 11:28:32;;;;;;;33.65;17.25;;;3.50;99.90;;;;;;5052143;28;20214;-75
2023/04/14 11:31:00;;;;;;;20.55;9.82;;;3.50;99.90;;;;;;5035648;28;20040;-75
2023/04/14 11:33:37;;;;;;;4.97;2.60;;;3.40;99.90;;;;;;5050501;28;20532;-75
2023/04/14 11:36:05;;;;;;;11.27;5.22;;;3.50;99.90;;;;;;5033590;28;20025;-75
2023/04/14 11:38:34;;;;;;;4.90;1.88;;;3.50;99.90;;;;;;5033511;28;20033;-75
2023/04/14 11:41:01;;;;;;;6.20;1.75;;;3.50;99.90;;;;;;5033441;28;20053;-75
2023/04/14 11:43:30;;;;;;;2.25;1.23;;;3.60;99.90;;;;;;5032064;28;20068;-75
2023/04/14 11:45:59;;;;;;;4.22;1.27;;;3.60;99.90;;;;;;5032147;28;20049;-75
2023/04/14 11:48:27;;;;;;;5.43;1.52;;;3.70;99.90;;;;;;5033617;28;20036;-75
2023/04/14 11:50:53;;;;;;;15.43;6.72;;;3.70;99.90;;;;;;5033356;28;20061;-74
2023/04/14 11:53:18;;;;;;;11.23;4.57;;;3.80;99.90;;;;;;5032084;28;20076;-74
2023/04/14 11:55:46;;;;;;;5.93;2.45;;;3.90;99.90;;;;;;5032049;28;20491;-75
2023/04/14 11:58:14;;;;;;;4.75;2.30;;;3.90;99.90;;;;;;5032223;28;20391;-74
2023/04/14 12:00:40;;;;;;;3.30;1.60;;;4.00;99.90;;;;;;5033498;28;20037;-74
2023/04/14 12:03:06;;;;;;;8.43;3.78;;;4.00;99.90;;;;;;5033109;28;20068;-74
2023/04/14 12:05:32;;;;;;;6.72;4.53;;;4.00;99.90;;;;;;5033503;28;20061;-74
2023/04/14 12:08:04;;;;;;;8.77;6.00;;;3.90;99.90;;;;;;5031943;28;20419;-74
2023/04/14 12:10:30;;;;;;;4.15;2.83;;;3.90;99.90;;;;;;5033322;28;20018;-74
2023/04/14 12:13:03;;;;;;;3.13;1.80;;;3.90;99.90;;;;;;5033258;28;20100;-74
2023/04/14 12:15:31;;;;;;;2.33;1.30;;;3.80;99.90;;;;;;5033075;28;20447;-74
2023/04/14 12:18:01;;;;;;;4.47;2.65;;;3.80;99.90;;;;;;5033331;28;20072;-74
2023/04/14 12:20:29;;;;;;;4.05;2.30;;;3.80;99.90;;;;;;5033050;28;20040;-74
2023/04/14 12:23:04;;;;;;;2.28;1.40;;;3.70;99.90;;;;;;5033429;28;20057;-74
2023/04/14 12:25:33;;;;;;;2.08;1.52;;;3.70;99.90;;;;;;5031859;28;20030;-74
2023/04/14 12:28:04;;;;;;;7.28;3.45;;;3.60;99.90;;;;;;5031672;28;20477;-74
2023/04/14 12:30:31;;;;;;;3.75;2.17;;;3.60;99.90;;;;;;5033227;28;20101;-74
2023/04/14 12:32:57;;;;;;;3.85;2.35;;;3.60;99.90;;;;;;5059740;23;20132;-70
2023/04/14 12:35:23;;;;;;;3.95;1.88;;;3.60;99.90;;;;;;5036748;28;20113;-71
2023/04/14 12:37:50;;;;;;;13.50;5.85;;;3.60;99.90;;;;;;5037233;28;20502;-70
2023/04/14 12:40:17;;;;;;;4.13;1.92;;;3.60;99.90;;;;;;5035534;28;20048;-70
2023/04/14 12:42:48;;;;;;;2.85;1.40;;;3.60;99.90;;;;;;5041826;28;20055;-71
2023/04/14 12:45:15;;;;;;;1.90;0.95;;;3.60;99.90;;;;;;5069788;28;20040;-71
2023/04/14 12:47:51;;;;;;;2.42;1.48;;;3.60;99.90;;;;;;5076726;28;20043;-71
2023/04/14 12:50:28;;;;;;;2.75;1.48;;;3.60;99.90;;;;;;5060222;28;20032;-71
2023/04/14 12:52:58;;;;;;;2.97;1.42;;;3.50;99.90;;;;;;5076613;28;20028;-70
2023/04/14 12:55:26;;;;;;;3.38;1.65;;;3.60;99.90;;;;;;5076707;28;20113;-71
2023/04/14 12:57:57;;;;;;;3.65;1.77;;;3.60;99.90;;;;;;5076818;28;20086;-71
2023/04/14 13:00:27;;;;;;;3.33;1.58;;;3.60;99.90;;;;;;5075988;28;20120;-70